createdAt,value
2023-02-01T00:02:00.683Z,6.13
2023-02-01T00:04:28.079Z,6.20
2023-02-01T00:06:55.199Z,6.37
2023-02-01T00:09:22.335Z,5.73
2023-02-01T00:11:49.436Z,6.40
2023-02-01T00:14:16.584Z,5.43
2023-02-01T00:16:43.852Z,6.07
2023-02-01T00:19:13.895Z,5.63
2023-02-01T00:21:41.077Z,5.97
2023-02-01T00:24:10.088Z,6.43
2023-02-01T00:26:37.333Z,6.43
2023-02-01T00:29:06.367Z,5.97
2023-02-01T00:31:34.092Z,5.38
2023-02-01T00:34:01.235Z,6.00
2023-02-01T00:36:29.288Z,6.10
2023-02-01T00:38:56.486Z,6.03
2023-02-01T00:41:23.807Z,5.53
2023-02-01T00:43:51.788Z,6.20
2023-02-01T00:46:19.948Z,6.75
2023-02-01T00:48:47.315Z,6.75
2023-02-01T00:51:16.157Z,5.85
2023-02-01T00:53:43.428Z,6.67
2023-02-01T00:56:10.698Z,6.78
2023-02-01T00:58:38.216Z,5.53
2023-02-01T01:01:07.571Z,5.82
2023-02-01T01:03:36.230Z,6.50
2023-02-01T01:06:04.987Z,5.05
2023-02-01T01:08:32.123Z,5.88
2023-02-01T01:10:59.249Z,5.70
2023-02-01T01:13:26.446Z,6.75
2023-02-01T01:15:53.598Z,5.60
2023-02-01T01:18:20.760Z,5.75
2023-02-01T01:20:49.657Z,6.03
2023-02-01T01:23:16.774Z,5.97
2023-02-01T01:25:43.432Z,6.93
2023-02-01T01:28:10.493Z,5.93
2023-02-01T01:30:37.676Z,6.83
2023-02-01T01:33:04.887Z,6.33
2023-02-01T01:35:34.101Z,6.30
2023-02-01T01:38:01.527Z,6.15
2023-02-01T01:40:29.322Z,5.90
2023-02-01T01:42:56.760Z,5.53
2023-02-01T01:45:27.262Z,5.65
2023-02-01T01:47:56.067Z,5.68
2023-02-01T01:50:25.999Z,5.03
2023-02-01T01:52:53.953Z,5.60
2023-02-01T01:55:21.723Z,5.40
2023-02-01T01:57:52.329Z,5.40
2023-02-01T02:00:20.890Z,5.90
2023-02-01T02:02:49.283Z,6.13
2023-02-01T02:05:17.474Z,5.03
2023-02-01T02:07:46.938Z,6.35
2023-02-01T02:10:14.703Z,4.77
2023-02-01T02:12:43.823Z,5.25
2023-02-01T02:15:12.889Z,4.97
2023-02-01T02:17:46.462Z,5.40
2023-02-01T02:20:24.788Z,4.82
2023-02-01T02:22:59.507Z,5.33
2023-02-01T02:25:35.008Z,5.80
2023-02-01T02:28:14.871Z,6.50
2023-02-01T02:31:01.926Z,5.70
2023-02-01T02:33:49.065Z,6.63
2023-02-01T02:36:16.149Z,6.20
2023-02-01T02:38:49.221Z,6.35
2023-02-01T02:41:50.345Z,6.45
2023-02-01T02:44:43.236Z,6.68
2023-02-01T02:47:30.631Z,7.50
2023-02-01T02:50:21.941Z,6.57
2023-02-01T02:53:12.763Z,6.60
2023-02-01T02:55:41.434Z,6.90
2023-02-01T02:58:29.024Z,5.85
2023-02-01T03:01:16.598Z,5.57
2023-02-01T03:04:04.722Z,6.00
2023-02-01T03:06:34.330Z,5.87
2023-02-01T03:09:03.755Z,6.97
2023-02-01T03:11:51.609Z,6.57
2023-02-01T03:14:20.336Z,6.97
2023-02-01T03:16:52.784Z,7.33
2023-02-01T03:19:22.966Z,6.70
2023-02-01T03:21:52.456Z,7.50
2023-02-01T03:24:22.284Z,7.20
2023-02-01T03:26:53.439Z,6.68
2023-02-01T03:29:23.327Z,7.32
2023-02-01T03:31:50.437Z,7.45
2023-02-01T03:34:18.219Z,8.13
2023-02-01T03:36:49.904Z,7.47
2023-02-01T03:39:36.862Z,8.27
2023-02-01T03:42:06.671Z,6.80
2023-02-01T03:44:35.887Z,7.15
2023-02-01T03:47:08.477Z,7.30
2023-02-01T03:49:37.386Z,7.38
2023-02-01T03:52:05.134Z,6.70
2023-02-01T03:54:33.140Z,6.10
2023-02-01T03:57:02.950Z,7.05
2023-02-01T03:59:30.070Z,6.53
2023-02-01T04:01:57.203Z,7.93
2023-02-01T04:04:24.328Z,7.13
2023-02-01T04:06:52.231Z,7.40
2023-02-01T04:09:19.686Z,7.03
2023-02-01T04:11:46.951Z,6.85
2023-02-01T04:14:14.065Z,8.45
2023-02-01T04:16:41.187Z,7.22
2023-02-01T04:19:08.377Z,7.15
2023-02-01T04:21:35.496Z,6.57
2023-02-01T04:24:02.620Z,6.15
2023-02-01T04:26:29.771Z,6.82
2023-02-01T04:28:56.627Z,6.82
2023-02-01T04:31:26.975Z,7.30
2023-02-01T04:33:54.736Z,6.60
2023-02-01T04:36:23.614Z,6.53
2023-02-01T04:38:52.386Z,6.32
2023-02-01T04:41:20.009Z,6.43
2023-02-01T04:43:48.052Z,5.80
2023-02-01T04:46:15.324Z,6.60
2023-02-01T04:48:42.834Z,7.00
2023-02-01T04:51:10.883Z,6.97
2023-02-01T04:53:38.098Z,7.30
2023-02-01T04:56:05.414Z,6.25
2023-02-01T04:58:32.553Z,7.43
2023-02-01T05:00:59.700Z,7.30
2023-02-01T05:03:26.925Z,6.60
2023-02-01T05:05:54.597Z,7.33
2023-02-01T05:08:23.415Z,8.20
2023-02-01T05:10:50.478Z,7.70
2023-02-01T05:13:37.641Z,9.68
2023-02-01T05:16:05.205Z,10.05
2023-02-01T05:18:32.316Z,9.60
2023-02-01T05:20:59.413Z,8.98
2023-02-01T05:23:26.569Z,11.30
2023-02-01T05:25:53.712Z,10.30
2023-02-01T05:28:20.844Z,10.13
2023-02-01T05:30:48.011Z,11.65
2023-02-01T05:33:18.565Z,9.55
2023-02-01T05:35:45.672Z,10.75
2023-02-01T05:38:12.756Z,13.60
2023-02-01T05:40:39.825Z,12.73
2023-02-01T05:43:06.935Z,10.63
2023-02-01T05:45:33.973Z,10.23
2023-02-01T05:48:01.008Z,12.55
2023-02-01T05:50:28.109Z,10.18
2023-02-01T05:52:55.181Z,9.32
2023-02-01T05:55:22.684Z,9.57
2023-02-01T05:57:49.748Z,9.55
2023-02-01T06:00:17.052Z,7.60
2023-02-01T06:02:44.817Z,8.20
2023-02-01T06:05:11.975Z,9.75
2023-02-01T06:07:39.182Z,9.57
2023-02-01T06:10:06.424Z,6.95
2023-02-01T06:12:33.620Z,7.22
2023-02-01T06:15:00.610Z,6.90
2023-02-01T06:17:27.794Z,4.80
2023-02-01T06:19:54.900Z,4.43
2023-02-01T06:22:23.488Z,8.70
2023-02-01T06:24:50.589Z,6.40
2023-02-01T06:27:17.732Z,3.80
2023-02-01T06:29:44.780Z,4.40
2023-02-01T06:32:12.046Z,3.88
2023-02-01T06:34:40.511Z,4.85
2023-02-01T06:37:07.647Z,4.43
2023-02-01T06:39:34.912Z,4.37
2023-02-01T06:42:02.022Z,5.07
2023-02-01T06:44:29.132Z,4.38
2023-02-01T06:46:56.559Z,5.38
2023-02-01T06:49:23.749Z,3.50
2023-02-01T06:51:50.977Z,4.00
2023-02-01T06:54:18.133Z,4.38
2023-02-01T06:56:45.324Z,3.67
2023-02-01T06:59:12.959Z,4.75
2023-02-01T07:01:40.248Z,3.57
2023-02-01T07:04:07.335Z,4.70
2023-02-01T07:06:34.507Z,3.40
2023-02-01T07:09:01.630Z,3.70
2023-02-01T07:11:29.135Z,5.65
2023-02-01T07:13:56.360Z,5.45
2023-02-01T07:16:23.725Z,3.60
2023-02-01T07:18:51.893Z,5.03
2023-02-01T07:21:19.130Z,5.03
2023-02-01T07:23:46.342Z,5.43
2023-02-01T07:26:14.530Z,5.77
2023-02-01T07:28:42.102Z,6.17
2023-02-01T07:31:11.437Z,5.28
2023-02-01T07:33:38.858Z,7.65
2023-02-01T07:36:07.135Z,9.02
2023-02-01T07:38:34.792Z,5.77
2023-02-01T07:41:02.796Z,7.55
2023-02-01T07:43:30.428Z,7.97
2023-02-01T07:45:57.728Z,7.93
2023-02-01T07:48:25.658Z,5.10
2023-02-01T07:51:10.751Z,6.65
2023-02-01T07:53:38.352Z,7.80
2023-02-01T07:56:06.552Z,6.37
2023-02-01T07:58:33.707Z,8.13
2023-02-01T08:01:20.782Z,6.60
2023-02-01T08:03:48.825Z,6.20
2023-02-01T08:06:15.895Z,5.43
2023-02-01T08:08:45.906Z,6.82
2023-02-01T08:11:13.346Z,6.57
2023-02-01T08:13:40.840Z,6.18
2023-02-01T08:16:08.948Z,5.75
2023-02-01T08:18:37.459Z,4.72
2023-02-01T08:21:06.394Z,4.13
2023-02-01T08:23:34.443Z,6.70
2023-02-01T08:26:09.131Z,5.87
2023-02-01T08:28:37.923Z,6.80
2023-02-01T08:31:05.997Z,5.60
2023-02-01T08:33:33.150Z,5.85
2023-02-01T08:36:02.076Z,6.03
2023-02-01T08:38:29.203Z,6.22
2023-02-01T08:40:56.321Z,5.05
2023-02-01T08:43:23.531Z,5.40
2023-02-01T08:45:51.719Z,6.45
2023-02-01T08:48:18.789Z,6.63
2023-02-01T08:50:45.895Z,5.85
2023-02-01T08:53:14.882Z,5.85
2023-02-01T08:55:42.243Z,6.97
2023-02-01T08:58:09.371Z,8.65
2023-02-01T09:00:36.445Z,8.20
2023-02-01T09:03:03.577Z,7.07
2023-02-01T09:05:44.036Z,7.85
2023-02-01T09:08:16.062Z,7.00
2023-02-01T09:10:43.781Z,8.10
2023-02-01T09:13:11.860Z,7.78
2023-02-01T09:15:39.419Z,7.77
2023-02-01T09:18:06.624Z,6.18
2023-02-01T09:20:33.765Z,6.78
2023-02-01T09:23:01.185Z,7.65
2023-02-01T09:25:28.563Z,7.75
2023-02-01T09:27:55.644Z,5.40
2023-02-01T09:30:23.127Z,3.80
2023-02-01T09:32:49.962Z,0.10
2023-02-01T09:35:17.400Z,0.10
2023-02-01T09:37:44.538Z,0.20
2023-02-01T09:40:15.883Z,0.10
2023-02-01T09:42:43.979Z,0.10
2023-02-01T09:45:18.548Z,0.30
2023-02-01T09:47:51.621Z,0.30
2023-02-01T09:50:22.410Z,0.05
2023-02-01T09:52:50.702Z,0.10
2023-02-01T09:55:21.534Z,0.82
2023-02-01T09:57:55.421Z,0.30
2023-02-01T10:00:27.669Z,1.02
2023-02-01T10:02:56.847Z,1.40
2023-02-01T10:05:33.249Z,8.30
2023-02-01T10:08:10.670Z,6.93
2023-02-01T10:10:42.801Z,11.45
2023-02-01T10:13:14.410Z,8.25
2023-02-01T10:15:42.618Z,9.93
2023-02-01T10:18:29.719Z,10.57
2023-02-01T10:21:01.956Z,9.75
2023-02-01T10:23:37.927Z,10.73
2023-02-01T10:26:10.005Z,10.02
2023-02-01T10:28:38.551Z,12.95
2023-02-01T10:31:06.130Z,10.50
2023-02-01T10:33:36.449Z,11.75
2023-02-01T10:36:11.508Z,11.48
2023-02-01T10:38:38.846Z,13.25
2023-02-01T10:41:13.487Z,12.20
2023-02-01T10:43:40.843Z,12.13
2023-02-01T10:46:08.666Z,11.80
2023-02-01T10:48:36.197Z,11.93
2023-02-01T10:51:07.630Z,12.83
2023-02-01T10:53:53.883Z,8.80
2023-02-01T10:56:24.064Z,10.20
2023-02-01T10:58:52.463Z,10.23
2023-02-01T11:01:21.895Z,10.85
2023-02-01T11:03:57.681Z,13.18
2023-02-01T11:06:24.754Z,7.70
2023-02-01T11:08:53.554Z,6.43
2023-02-01T11:11:21.225Z,9.27
2023-02-01T11:13:54.381Z,7.57
2023-02-01T11:16:21.541Z,8.40
2023-02-01T11:18:54.538Z,10.35
2023-02-01T11:21:22.358Z,9.20
2023-02-01T11:23:49.666Z,8.20
2023-02-01T11:26:24.700Z,7.95
2023-02-01T11:28:55.247Z,10.07
2023-02-01T11:31:22.598Z,10.57
2023-02-01T11:33:51.727Z,9.38
2023-02-01T11:36:20.781Z,10.35
2023-02-01T11:38:53.206Z,11.25
2023-02-01T11:41:28.735Z,8.73
2023-02-01T11:44:00.193Z,9.98
2023-02-01T11:46:36.993Z,11.02
2023-02-01T11:49:17.495Z,14.30
2023-02-01T11:51:51.792Z,10.43
2023-02-01T11:54:28.194Z,11.82
2023-02-01T11:56:55.370Z,8.73
2023-02-01T11:59:33.836Z,11.65
2023-02-01T12:02:08.211Z,8.23
2023-02-01T12:04:44.861Z,7.93
2023-02-01T12:07:16.320Z,10.80
2023-02-01T12:10:05.327Z,8.65
2023-02-01T12:12:41.722Z,8.95
2023-02-01T12:15:09.844Z,8.10
2023-02-01T12:17:44.426Z,9.95
2023-02-01T12:20:32.235Z,10.40
2023-02-01T12:23:19.306Z,11.07
2023-02-01T12:26:06.381Z,11.57
2023-02-01T12:28:33.492Z,9.30
2023-02-01T12:31:06.114Z,10.77
2023-02-01T12:33:39.976Z,9.25
2023-02-01T12:36:08.250Z,10.57
2023-02-01T12:38:46.814Z,7.78
2023-02-01T12:41:21.437Z,12.65
2023-02-01T12:43:49.615Z,10.60
2023-02-01T12:46:19.787Z,8.18
2023-02-01T12:48:54.587Z,8.60
2023-02-01T12:51:24.970Z,8.40
2023-02-01T12:53:54.275Z,10.47
2023-02-01T12:56:41.308Z,11.13
2023-02-01T12:59:28.357Z,10.00
2023-02-01T13:01:59.999Z,9.25
2023-02-01T13:04:30.132Z,10.77
2023-02-01T13:07:17.974Z,12.80
2023-02-01T13:09:51.382Z,13.30
2023-02-01T13:12:21.562Z,12.90
2023-02-01T13:14:48.668Z,10.23
2023-02-01T13:17:21.149Z,9.40
2023-02-01T13:19:57.341Z,10.43
2023-02-01T13:22:30.562Z,10.98
2023-02-01T13:24:59.068Z,7.97
2023-02-01T13:27:28.732Z,6.57
2023-02-01T13:29:58.174Z,5.70
2023-02-01T13:33:50.362Z,8.43
2023-02-01T13:35:14.180Z,9.38
2023-02-01T13:37:52.368Z,7.80
2023-02-01T13:40:32.160Z,8.57
2023-02-01T13:43:01.376Z,10.65
2023-02-01T13:45:31.055Z,8.73
2023-02-01T13:48:00.089Z,8.05
2023-02-01T13:50:27.264Z,8.87
2023-02-01T13:52:57.528Z,9.25
2023-02-01T13:55:26.129Z,10.47
2023-02-01T13:58:00.815Z,8.10
2023-02-01T14:00:35.121Z,6.75
2023-02-01T14:03:03.401Z,10.40
2023-02-01T14:05:30.527Z,8.70
2023-02-01T14:08:13.830Z,8.43
2023-02-01T14:10:58.269Z,6.10
2023-02-01T14:13:28.664Z,7.25
2023-02-01T14:16:12.954Z,12.05
2023-02-01T14:18:42.172Z,9.35
2023-02-01T14:21:22.920Z,8.45
2023-02-01T14:24:10.640Z,9.35
2023-02-01T14:26:38.877Z,8.25
2023-02-01T14:29:25.940Z,10.10
2023-02-01T14:31:55.518Z,7.30
2023-02-01T14:34:25.479Z,7.93
2023-02-01T14:36:55.859Z,7.75
2023-02-01T14:39:28.402Z,6.93
2023-02-01T14:42:00.828Z,7.30
2023-02-01T14:44:31.574Z,7.28
2023-02-01T14:47:18.588Z,9.13
2023-02-01T14:50:05.770Z,10.32
2023-02-01T14:52:36.102Z,8.10
2023-02-01T14:55:06.672Z,10.43
2023-02-01T14:57:35.250Z,9.68
2023-02-01T15:00:09.706Z,11.85
2023-02-01T15:02:39.723Z,8.05
2023-02-01T15:05:18.025Z,9.98
2023-02-01T15:07:45.258Z,8.02
2023-02-01T15:10:12.582Z,10.40
2023-02-01T15:12:45.336Z,17.13
2023-02-01T15:15:12.505Z,12.27
2023-02-01T15:17:40.061Z,8.15
2023-02-01T15:20:27.081Z,12.47
2023-02-01T15:22:55.281Z,11.45
2023-02-01T15:25:24.338Z,13.98
2023-02-01T15:27:51.780Z,14.65
2023-02-01T15:30:20.561Z,11.37
2023-02-01T15:32:47.721Z,11.38
2023-02-01T15:35:37.028Z,11.43
2023-02-01T15:38:24.118Z,13.07
2023-02-01T15:41:08.641Z,8.63
2023-02-01T15:43:41.584Z,8.40
2023-02-01T15:46:10.336Z,6.00
2023-02-01T15:48:40.790Z,9.75
2023-02-01T15:51:13.126Z,6.80
2023-02-01T15:53:46.153Z,7.13
2023-02-01T15:56:13.312Z,6.68
2023-02-01T15:58:43.710Z,9.68
2023-02-01T16:01:14.368Z,7.80
2023-02-01T16:03:42.917Z,7.88
2023-02-01T16:06:11.694Z,9.38
2023-02-01T16:08:39.847Z,9.45
2023-02-01T16:11:10.165Z,10.02
2023-02-01T16:13:37.366Z,7.03
2023-02-01T16:16:08.831Z,9.07
2023-02-01T16:18:36.110Z,7.00
2023-02-01T16:21:03.399Z,6.13
2023-02-01T16:23:32.276Z,8.52
2023-02-01T16:25:59.729Z,7.15
2023-02-01T16:28:27.082Z,8.02
2023-02-01T16:30:54.353Z,8.45
2023-02-01T16:33:22.988Z,7.20
2023-02-01T16:35:50.696Z,8.13
2023-02-01T16:38:19.775Z,6.77
2023-02-01T16:40:47.358Z,8.10
2023-02-01T16:43:16.901Z,8.98
2023-02-01T16:45:48.646Z,10.25
2023-02-01T16:48:20.954Z,7.60
2023-02-01T16:50:49.278Z,8.60
2023-02-01T16:53:18.080Z,10.23
2023-02-01T16:55:45.202Z,9.33
2023-02-01T16:58:12.278Z,8.02
2023-02-01T17:00:39.485Z,10.38
2023-02-01T17:03:06.674Z,7.47
2023-02-01T17:05:34.884Z,9.25
2023-02-01T17:08:06.084Z,7.47
2023-02-01T17:10:34.359Z,7.43
2023-02-01T17:13:01.916Z,8.32
2023-02-01T17:15:30.505Z,8.95
2023-02-01T17:17:58.859Z,7.93
2023-02-01T17:20:33.070Z,7.00
2023-02-01T17:23:00.586Z,8.32
2023-02-01T17:25:29.343Z,6.72
2023-02-01T17:27:56.458Z,7.97
2023-02-01T17:30:23.947Z,8.98
2023-02-01T17:32:51.086Z,7.53
2023-02-01T17:35:24.645Z,8.80
2023-02-01T17:37:52.464Z,9.07
2023-02-01T17:40:20.002Z,5.90
2023-02-01T17:42:47.442Z,8.20
2023-02-01T17:45:21.316Z,7.72
2023-02-01T17:47:48.673Z,10.18
2023-02-01T17:50:15.902Z,10.35
2023-02-01T17:52:43.030Z,8.88
2023-02-01T17:55:19.682Z,10.35
2023-02-01T17:57:48.050Z,10.73
2023-02-01T18:00:16.868Z,10.25
2023-02-01T18:02:44.418Z,8.07
2023-02-01T18:05:31.470Z,8.63
2023-02-01T18:07:58.584Z,7.47
2023-02-01T18:10:25.675Z,8.63
2023-02-01T18:12:52.825Z,8.65
2023-02-01T18:15:56.317Z,9.63
2023-02-01T18:18:23.406Z,6.70
2023-02-01T18:20:50.829Z,9.13
2023-02-01T18:23:22.639Z,8.13
2023-02-01T18:25:51.442Z,6.90
2023-02-01T18:28:19.300Z,11.02
2023-02-01T18:30:48.231Z,9.60
2023-02-01T18:33:21.048Z,8.88
2023-02-01T18:35:48.099Z,7.72
2023-02-01T18:38:16.023Z,8.75
2023-02-01T18:40:49.156Z,8.40
2023-02-01T18:43:16.462Z,9.33
2023-02-01T18:45:45.203Z,10.27
2023-02-01T18:48:13.013Z,8.27
2023-02-01T18:50:41.145Z,8.80
2023-02-01T18:53:11.470Z,8.45
2023-02-01T18:55:38.599Z,9.02
2023-02-01T18:58:09.874Z,8.13
2023-02-01T19:00:37.051Z,8.15
2023-02-01T19:03:04.396Z,8.30
2023-02-01T19:05:32.150Z,11.73
2023-02-01T19:07:59.250Z,10.90
2023-02-01T19:10:27.518Z,9.77
2023-02-01T19:12:55.964Z,9.07
2023-02-01T19:15:23.323Z,8.75
2023-02-01T19:17:51.434Z,8.63
2023-02-01T19:20:19.959Z,10.00
2023-02-01T19:22:47.726Z,8.37
2023-02-01T19:25:17.110Z,8.82
2023-02-01T19:27:44.303Z,7.90
2023-02-01T19:30:12.865Z,9.15
2023-02-01T19:32:40.244Z,8.45
2023-02-01T19:35:08.087Z,9.13
2023-02-01T19:37:35.275Z,9.07
2023-02-01T19:40:02.472Z,9.80
2023-02-01T19:42:30.024Z,8.70
2023-02-01T19:44:57.160Z,8.80
2023-02-01T19:47:24.249Z,10.50
2023-02-01T19:49:51.342Z,11.10
2023-02-01T19:52:18.524Z,9.23
2023-02-01T19:54:45.669Z,9.52
2023-02-01T19:57:12.780Z,9.18
2023-02-01T19:59:39.890Z,8.80
2023-02-01T20:02:06.170Z,10.77
2023-02-01T20:04:33.416Z,9.60
2023-02-01T20:07:00.485Z,8.37
2023-02-01T20:09:29.480Z,12.70
2023-02-01T20:11:56.739Z,8.95
2023-02-01T20:14:25.972Z,10.13
2023-02-01T20:16:53.312Z,10.13
2023-02-01T20:19:20.539Z,8.63
2023-02-01T20:21:47.761Z,10.67
2023-02-01T20:24:17.271Z,8.33
2023-02-01T20:26:45.930Z,8.23
2023-02-01T20:29:13.496Z,11.43
2023-02-01T20:31:40.706Z,10.00
2023-02-01T20:34:08.265Z,8.45
2023-02-01T20:36:35.344Z,8.02
2023-02-01T20:39:02.509Z,9.38
2023-02-01T20:41:29.613Z,10.10
2023-02-01T20:43:56.871Z,10.15
2023-02-01T20:46:24.285Z,11.45
2023-02-01T20:48:51.759Z,9.33
2023-02-01T20:51:20.411Z,10.02
2023-02-01T20:53:48.891Z,9.80
2023-02-01T20:56:16.452Z,12.13
2023-02-01T20:58:43.794Z,9.43
2023-02-01T21:01:11.728Z,8.68
2023-02-01T21:03:39.260Z,10.25
2023-02-01T21:06:06.838Z,7.70
2023-02-01T21:08:34.147Z,8.77
2023-02-01T21:11:02.210Z,8.23
2023-02-01T21:13:30.532Z,8.33
2023-02-01T21:15:58.002Z,9.98
2023-02-01T21:18:25.420Z,11.55
2023-02-01T21:20:52.648Z,8.50
2023-02-01T21:23:19.851Z,10.40
2023-02-01T21:25:47.272Z,7.43
2023-02-01T21:28:14.535Z,9.63
2023-02-01T21:30:41.660Z,8.87
2023-02-01T21:33:08.873Z,10.57
2023-02-01T21:35:35.952Z,6.73
2023-02-01T21:38:03.048Z,8.97
2023-02-01T21:40:30.100Z,8.93
2023-02-01T21:42:57.193Z,10.85
2023-02-01T21:45:24.524Z,8.18
2023-02-01T21:47:51.996Z,9.68
2023-02-01T21:50:20.105Z,9.40
2023-02-01T21:52:47.406Z,9.60
2023-02-01T21:55:14.845Z,9.27
2023-02-01T21:57:42.370Z,9.07
2023-02-01T22:00:13.339Z,9.20
2023-02-01T22:02:40.566Z,9.52
2023-02-01T22:05:07.969Z,10.32
2023-02-01T22:07:36.203Z,8.57
2023-02-01T22:10:03.638Z,10.93
2023-02-01T22:12:30.594Z,7.33
2023-02-01T22:14:57.616Z,10.82
2023-02-01T22:17:24.389Z,11.10
2023-02-01T22:19:51.443Z,6.00
2023-02-01T22:22:18.545Z,9.43
2023-02-01T22:24:45.741Z,7.70
2023-02-01T22:27:13.479Z,8.80
2023-02-01T22:29:42.003Z,9.43
2023-02-01T22:32:09.338Z,10.48
2023-02-01T22:34:36.498Z,8.07
2023-02-01T22:37:03.591Z,9.03
2023-02-01T22:39:30.719Z,5.75
2023-02-01T22:41:57.855Z,7.63
2023-02-01T22:44:25.042Z,8.90
2023-02-01T22:46:52.138Z,7.93
2023-02-01T22:49:19.248Z,9.07
2023-02-01T22:51:46.438Z,10.30
2023-02-01T22:54:17.424Z,8.43
2023-02-01T22:56:44.547Z,10.77
2023-02-01T22:59:13.593Z,8.82
2023-02-01T23:01:41.322Z,8.50
2023-02-01T23:04:10.525Z,10.35
2023-02-01T23:06:37.872Z,9.73
2023-02-01T23:09:11.291Z,8.00
2023-02-01T23:11:38.853Z,9.07
2023-02-01T23:14:06.476Z,8.80
2023-02-01T23:16:33.609Z,9.70
2023-02-01T23:19:01.171Z,9.45
2023-02-01T23:21:28.502Z,8.40
2023-02-01T23:23:56.967Z,12.25
2023-02-01T23:26:25.385Z,8.55
2023-02-01T23:28:55.098Z,11.73
2023-02-01T23:31:23.185Z,8.18
2023-02-01T23:33:54.557Z,6.95
2023-02-01T23:36:22.196Z,8.77
2023-02-01T23:38:49.739Z,7.25
2023-02-01T23:41:18.113Z,10.52
2023-02-01T23:44:00.943Z,7.88
2023-02-01T23:46:31.396Z,8.55
2023-02-01T23:48:59.263Z,8.38
2023-02-01T23:51:26.976Z,6.32
2023-02-01T23:53:54.637Z,9.10
2023-02-01T23:56:24.571Z,9.10
2023-02-01T23:58:52.220Z,8.35
